Time;durP1;ratioP1;P1;durP2;ratioP2;P2;SDS_P1;SDS_P2;PMS_P1;PMS_P2;Temp;Humidity;BMP_temperature;BMP_pressure;BME280_temperature;BME280_humidity;BME280_pressure;Samples;Min_cycle;Max_cycle;Signal;HPM_P1;HPM_P2
2022/08/18 00:01:08;;;;;;;3.80;3.40;;;;;;;;;;5067924;28;20508;-86
2022/08/18 00:03:33;;;;;;;6.72;3.50;;;;;;;;;;5074813;28;20034;-85
2022/08/18 00:05:58;;;;;;;4.15;3.50;;;;;;;;;;5078673;28;20016;-86
2022/08/18 00:08:24;;;;;;;5.07;3.55;;;;;;;;;;5069213;28;20086;-87
2022/08/18 00:10:49;;;;;;;4.45;3.63;;;;;;;;;;5056867;28;20021;-88
2022/08/18 00:13:14;;;;;;;5.50;3.83;;;;;;;;;;5057388;28;20090;-86
2022/08/18 00:15:40;;;;;;;8.98;3.45;;;;;;;;;;5070576;28;20445;-87
2022/08/18 00:18:05;;;;;;;5.80;4.03;;;;;;;;;;5076922;28;20028;-86
2022/08/18 00:20:31;;;;;;;6.63;3.63;;;;;;;;;;5074340;28;20099;-88
2022/08/18 00:22:56;;;;;;;6.10;3.63;;;;;;;;;;5077688;28;20029;-87
2022/08/18 00:25:22;;;;;;;5.40;3.80;;;;;;;;;;5073034;28;20500;-87
2022/08/18 00:27:48;;;;;;;4.00;3.42;;;;;;;;;;5071558;28;20520;-89
2022/08/18 00:30:17;;;;;;;4.20;3.13;;;;;;;;;;5075996;28;20024;-87
2022/08/18 00:32:47;;;;;;;3.70;3.28;;;;;;;;;;5067053;28;20029;-87
2022/08/18 00:35:25;;;;;;;4.75;3.25;;;;;;;;;;5058449;28;20031;-87
2022/08/18 00:37:51;;;;;;;3.40;2.97;;;;;;;;;;5053801;28;20045;-89
2022/08/18 00:40:21;;;;;;;5.72;3.88;;;;;;;;;;5052098;28;20017;-89
2022/08/18 00:42:53;;;;;;;6.50;4.00;;;;;;;;;;5072688;28;20082;-89
2022/08/18 00:45:27;;;;;;;4.13;3.13;;;;;;;;;;5075378;28;20056;-90
2022/08/18 00:47:53;;;;;;;3.65;3.33;;;;;;;;;;5071196;28;20265;-88
2022/08/18 00:50:29;;;;;;;10.57;4.55;;;;;;;;;;5059432;28;20047;-88
2022/08/18 00:53:01;;;;;;;7.50;3.70;;;;;;;;;;5092608;28;20035;-88
2022/08/18 00:55:28;;;;;;;;;;;;;;;;;;5057896;28;20043;-89
2022/08/18 00:58:01;;;;;;;5.43;3.83;;;;;;;;;;5075369;28;19912;-88
2022/08/18 01:00:26;;;;;;;6.00;3.70;;;;;;;;;;5075764;28;20088;-88
2022/08/18 01:02:57;;;;;;;5.82;3.30;;;;;;;;;;5075533;28;20478;-88
2022/08/18 01:05:36;;;;;;;3.97;3.45;;;;;;;;;;5080189;28;20363;-88
2022/08/18 01:08:02;;;;;;;5.63;3.45;;;;;;;;;;5097638;28;20029;-89
2022/08/18 01:10:31;;;;;;;5.78;3.45;;;;;;;;;;5098022;28;20012;-86
2022/08/18 01:12:57;;;;;;;5.22;3.80;;;;;;;;;;5095574;28;20036;-87
2022/08/18 01:15:26;;;;;;;5.10;3.38;;;;;;;;;;5069055;28;20078;-88
2022/08/18 01:23:44;;;;;;;6.25;3.95;;;;;;;;;;5076847;28;20039;-87
2022/08/18 01:26:10;;;;;;;6.22;3.63;;;;;;;;;;5075422;28;20088;-88
2022/08/18 01:28:39;;;;;;;5.88;3.42;;;;;;;;;;5070636;28;20059;-88
2022/08/18 01:31:07;;;;;;;5.07;3.17;;;;;;;;;;5060436;28;20037;-87
2022/08/18 01:33:40;;;;;;;4.88;3.55;;;;;;;;;;5074701;28;20532;-85
2022/08/18 01:36:19;;;;;;;7.07;4.03;;;;;;;;;;5036907;28;20059;-87
2022/08/18 01:38:49;;;;;;;6.05;3.85;;;;;;;;;;5054960;28;20063;-89
2022/08/18 01:41:16;;;;;;;5.60;3.75;;;;;;;;;;5075515;28;20020;-87
2022/08/18 01:43:42;;;;;;;5.20;3.45;;;;;;;;;;5073838;28;20060;-87
2022/08/18 01:46:07;;;;;;;5.03;3.40;;;;;;;;;;5075406;28;20051;-89
2022/08/18 01:48:35;;;;;;;4.72;3.58;;;;;;;;;;5070407;28;20024;-88
2022/08/18 01:51:09;;;;;;;4.18;3.45;;;;;;;;;;5055740;28;20037;-86
2022/08/18 01:53:35;;;;;;;6.47;4.10;;;;;;;;;;5055750;28;20023;-87
2022/08/18 01:56:04;;;;;;;4.50;3.97;;;;;;;;;;5064532;28;20025;-87
2022/08/18 01:58:30;;;;;;;9.27;5.00;;;;;;;;;;5053995;28;20041;-86
2022/08/18 02:00:57;;;;;;;4.95;4.22;;;;;;;;;;5054900;28;20036;-86
2022/08/18 02:03:27;;;;;;;4.53;3.95;;;;;;;;;;5059698;28;20031;-86
2022/08/18 02:05:59;;;;;;;6.50;4.30;;;;;;;;;;5074413;28;20017;-88
2022/08/18 02:08:25;;;;;;;4.63;3.80;;;;;;;;;;5073142;28;20063;-88
2022/08/18 02:10:50;;;;;;;5.13;3.90;;;;;;;;;;5073006;28;20028;-88
2022/08/18 02:13:16;;;;;;;6.68;3.42;;;;;;;;;;5071595;28;20536;-87
2022/08/18 02:15:41;;;;;;;4.47;3.67;;;;;;;;;;5054086;28;20021;-87
2022/08/18 02:18:13;;;;;;;4.95;4.20;;;;;;;;;;5072243;28;20044;-88
2022/08/18 02:20:39;;;;;;;5.55;3.67;;;;;;;;;;5073294;28;20032;-87
2022/08/18 02:23:05;;;;;;;5.25;3.90;;;;;;;;;;5068799;28;20021;-87
2022/08/18 02:25:30;;;;;;;5.72;4.50;;;;;;;;;;5072748;28;20493;-87
2022/08/18 02:27:56;;;;;;;6.53;4.05;;;;;;;;;;5074242;28;20021;-87
2022/08/18 02:30:21;;;;;;;5.32;4.13;;;;;;;;;;5069618;28;20017;-87
2022/08/18 02:32:47;;;;;;;5.63;3.90;;;;;;;;;;5072574;28;20481;-86
2022/08/18 02:35:12;;;;;;;4.75;3.70;;;;;;;;;;5072735;28;20024;-87
2022/08/18 02:37:40;;;;;;;6.70;4.07;;;;;;;;;;5066191;28;20021;-87
2022/08/18 02:40:06;;;;;;;6.05;4.32;;;;;;;;;;5072198;28;20064;-89
2022/08/18 02:42:31;;;;;;;5.32;4.03;;;;;;;;;;5072677;28;20608;-87
2022/08/18 02:44:56;;;;;;;7.95;4.00;;;;;;;;;;5072788;28;20138;-88
2022/08/18 02:47:22;;;;;;;5.82;4.20;;;;;;;;;;5073707;28;20385;-89
2022/08/18 02:49:47;;;;;;;5.80;4.03;;;;;;;;;;5070423;28;20020;-87
2022/08/18 02:52:13;;;;;;;7.72;4.60;;;;;;;;;;5072223;28;20032;-88
2022/08/18 02:54:38;;;;;;;4.97;3.95;;;;;;;;;;5073872;28;20056;-87
2022/08/18 02:57:09;;;;;;;7.70;3.90;;;;;;;;;;5072324;28;20392;-87
2022/08/18 02:59:36;;;;;;;5.32;3.88;;;;;;;;;;5072246;28;20029;-87
2022/08/18 03:02:01;;;;;;;5.95;4.50;;;;;;;;;;5054046;28;20021;-87
2022/08/18 03:04:30;;;;;;;6.85;4.53;;;;;;;;;;5065045;28;20046;-87
2022/08/18 03:06:59;;;;;;;5.38;4.18;;;;;;;;;;5057665;28;20016;-87
2022/08/18 03:09:25;;;;;;;6.88;3.63;;;;;;;;;;5073531;28;20020;-87
2022/08/18 03:11:51;;;;;;;7.57;4.18;;;;;;;;;;5054422;28;20063;-86
2022/08/18 03:14:17;;;;;;;5.38;3.92;;;;;;;;;;5059535;28;20028;-87
2022/08/18 03:16:45;;;;;;;5.80;3.97;;;;;;;;;;5073052;28;20024;-87
2022/08/18 03:19:13;;;;;;;4.55;3.78;;;;;;;;;;5069460;28;20025;-88
2022/08/18 03:21:39;;;;;;;5.80;4.53;;;;;;;;;;5075789;28;20029;-87
2022/08/18 03:24:05;;;;;;;6.43;4.28;;;;;;;;;;5072611;28;20021;-88
2022/08/18 03:26:31;;;;;;;5.63;3.75;;;;;;;;;;5075666;28;20025;-86
2022/08/18 03:28:58;;;;;;;4.97;4.22;;;;;;;;;;5090227;28;20013;-85
2022/08/18 03:31:25;;;;;;;5.72;3.92;;;;;;;;;;5085518;28;20077;-86
2022/08/18 03:33:52;;;;;;;7.45;4.35;;;;;;;;;;5076823;28;20033;-87
2022/08/18 03:36:23;;;;;;;5.55;3.97;;;;;;;;;;5064947;28;20514;-87
2022/08/18 03:38:49;;;;;;;4.82;4.05;;;;;;;;;;5054422;28;20106;-87
2022/08/18 03:41:17;;;;;;;4.93;4.10;;;;;;;;;;5054059;28;20028;-88
2022/08/18 03:43:43;;;;;;;4.78;4.10;;;;;;;;;;5052877;28;20116;-87
2022/08/18 03:46:11;;;;;;;5.30;3.53;;;;;;;;;;5052569;28;20427;-87
2022/08/18 03:48:39;;;;;;;5.18;3.92;;;;;;;;;;5061092;28;20052;-87
2022/08/18 03:51:06;;;;;;;5.05;4.00;;;;;;;;;;5071970;28;20090;-87
2022/08/18 03:53:35;;;;;;;6.15;4.28;;;;;;;;;;5077290;28;20024;-88
2022/08/18 03:56:01;;;;;;;5.25;3.92;;;;;;;;;;5079653;28;20024;-87
2022/08/18 03:58:26;;;;;;;4.93;3.65;;;;;;;;;;5078121;28;20040;-88
2022/08/18 04:00:52;;;;;;;5.10;4.18;;;;;;;;;;5068473;28;20025;-87
2022/08/18 04:03:17;;;;;;;7.00;4.03;;;;;;;;;;5078029;28;20021;-87
2022/08/18 04:05:43;;;;;;;4.95;3.75;;;;;;;;;;5079145;28;20028;-88
2022/08/18 04:08:09;;;;;;;5.95;4.63;;;;;;;;;;5079661;28;20410;-88
2022/08/18 04:10:34;;;;;;;8.68;4.72;;;;;;;;;;5081126;28;20058;-87
2022/08/18 04:13:01;;;;;;;5.25;4.10;;;;;;;;;;5064495;28;20029;-87
2022/08/18 04:15:26;;;;;;;7.53;4.57;;;;;;;;;;5075400;28;20052;-86
2022/08/18 04:17:53;;;;;;;6.35;4.70;;;;;;;;;;5083564;28;20397;-85
2022/08/18 04:20:19;;;;;;;8.35;4.43;;;;;;;;;;5078078;28;20051;-86
2022/08/18 04:22:45;;;;;;;6.05;4.18;;;;;;;;;;5084537;28;20028;-86
2022/08/18 04:25:11;;;;;;;6.22;4.63;;;;;;;;;;5087548;28;20040;-86
2022/08/18 04:27:41;;;;;;;5.80;4.70;;;;;;;;;;5090613;28;20032;-86
2022/08/18 04:30:07;;;;;;;6.60;4.10;;;;;;;;;;5093998;28;20058;-85
2022/08/18 04:32:33;;;;;;;6.03;4.35;;;;;;;;;;5077138;28;20021;-85
2022/08/18 04:34:59;;;;;;;5.88;4.47;;;;;;;;;;5077206;28;20038;-87
2022/08/18 04:37:24;;;;;;;4.40;3.90;;;;;;;;;;5081632;28;20025;-85
2022/08/18 04:39:49;;;;;;;6.65;4.25;;;;;;;;;;5070110;28;20025;-87
2022/08/18 04:42:15;;;;;;;5.47;4.05;;;;;;;;;;5076166;28;20058;-88
2022/08/18 04:44:41;;;;;;;5.55;4.30;;;;;;;;;;5105419;22;20051;-83
2022/08/18 04:47:08;;;;;;;6.18;3.92;;;;;;;;;;5074673;28;20035;-82
2022/08/18 04:49:34;;;;;;;5.30;4.05;;;;;;;;;;5085680;28;20019;-82
2022/08/18 04:54:44;;;;;;;5.93;4.28;;;;;;;;;;5097386;28;20107;-83
2022/08/18 04:57:12;;;;;;;8.20;4.47;;;;;;;;;;5097822;28;20020;-83
2022/08/18 04:59:40;;;;;;;5.32;4.28;;;;;;;;;;5084685;28;20020;-84
2022/08/18 05:02:07;;;;;;;6.72;4.28;;;;;;;;;;5100597;28;20023;-84
2022/08/18 05:04:36;;;;;;;6.65;4.10;;;;;;;;;;5100775;28;20024;-83
2022/08/18 05:07:02;;;;;;;6.57;4.55;;;;;;;;;;5099657;28;20024;-82
2022/08/18 05:09:28;;;;;;;6.20;4.03;;;;;;;;;;5097480;28;20022;-83
2022/08/18 05:11:53;;;;;;;8.48;5.22;;;;;;;;;;5089138;28;20080;-82
2022/08/18 05:14:19;;;;;;;6.65;4.70;;;;;;;;;;5095833;28;20081;-85
2022/08/18 05:16:45;;;;;;;7.38;4.45;;;;;;;;;;5082453;28;20047;-84
2022/08/18 05:19:11;;;;;;;7.90;4.18;;;;;;;;;;5095037;28;20043;-83
2022/08/18 05:21:40;;;;;;;6.57;4.43;;;;;;;;;;5097385;28;20066;-83
2022/08/18 05:24:07;;;;;;;6.85;4.82;;;;;;;;;;5097600;28;20054;-82
2022/08/18 05:26:33;;;;;;;6.38;4.45;;;;;;;;;;5097708;28;20062;-84
2022/08/18 05:28:59;;;;;;;7.13;4.55;;;;;;;;;;5089201;28;20027;-84
2022/08/18 05:31:26;;;;;;;10.38;4.75;;;;;;;;;;5090018;28;20024;-83
2022/08/18 05:33:56;;;;;;;8.73;4.38;;;;;;;;;;5087508;28;20087;-83
2022/08/18 05:36:47;;;;;;;6.70;4.53;;;;;;;;;;5094810;28;20020;-84
2022/08/18 05:39:15;;;;;;;5.80;4.82;;;;;;;;;;5083658;28;20466;-84
2022/08/18 05:41:49;;;;;;;6.03;5.00;;;;;;;;;;5096931;28;20031;-84
2022/08/18 05:44:18;;;;;;;6.43;5.13;;;;;;;;;;5096059;28;20501;-83
2022/08/18 05:46:55;;;;;;;6.75;4.95;;;;;;;;;;5084112;28;20047;-84
2022/08/18 05:49:24;;;;;;;5.57;4.40;;;;;;;;;;5095828;28;20110;-84
2022/08/18 05:51:59;;;;;;;6.13;4.47;;;;;;;;;;5096451;28;20024;-83
2022/08/18 05:57:24;;;;;;;6.65;4.72;;;;;;;;;;5096067;28;20031;-84
2022/08/18 05:59:51;;;;;;;5.60;4.13;;;;;;;;;;5093468;28;20032;-83
2022/08/18 06:02:30;;;;;;;5.45;4.00;;;;;;;;;;5096525;28;20492;-84
2022/08/18 06:05:10;;;;;;;5.45;4.43;;;;;;;;;;5095961;28;20020;-84
2022/08/18 06:07:43;;;;;;;5.30;4.32;;;;;;;;;;5096150;28;20409;-84
2022/08/18 06:10:11;;;;;;;9.45;4.45;;;;;;;;;;5095774;28;20073;-83
2022/08/18 06:12:41;;;;;;;6.35;4.90;;;;;;;;;;5079203;28;20024;-83
2022/08/18 06:15:36;;;;;;;4.20;3.80;;;;;;;;;;5079323;28;20056;-81
2022/08/18 06:18:26;;;;;;;5.45;4.10;;;;;;;;;;5077611;28;20111;-83
2022/08/18 06:21:13;;;;;;;4.82;4.13;;;;;;;;;;5089016;28;20020;-84
2022/08/18 06:24:13;;;;;;;6.07;4.22;;;;;;;;;;5075136;28;20389;-84
2022/08/18 06:26:49;;;;;;;6.03;4.57;;;;;;;;;;5058676;28;20037;-81
2022/08/18 06:29:41;;;;;;;5.97;4.43;;;;;;;;;;5080055;28;20023;-83
2022/08/18 06:32:34;;;;;;;;;;;;;;;;;;5102328;28;20048;-81
2022/08/18 06:35:18;;;;;;;6.10;4.28;;;;;;;;;;5116862;28;19908;-80
2022/08/18 06:38:37;;;;;;;5.60;4.35;;;;;;;;;;5116563;28;20023;-81
2022/08/18 06:41:11;;;;;;;5.38;3.95;;;;;;;;;;5116913;28;20012;-80
2022/08/18 06:43:42;;;;;;;5.80;4.18;;;;;;;;;;5115971;28;20016;-81
2022/08/18 06:46:14;;;;;;;11.70;4.63;;;;;;;;;;5111182;28;20008;-81
2022/08/18 06:48:52;;;;;;;7.80;4.60;;;;;;;;;;5114920;28;20020;-81
2022/08/18 06:51:20;;;;;;;4.70;4.20;;;;;;;;;;5097747;28;20020;-83
2022/08/18 06:53:52;;;;;;;6.35;5.53;;;;;;;;;;5100208;28;20035;-84
2022/08/18 06:56:24;;;;;;;7.20;4.75;;;;;;;;;;5102160;28;20024;-83
2022/08/18 06:58:54;;;;;;;7.60;4.20;;;;;;;;;;5094108;28;20025;-84
2022/08/18 07:01:21;;;;;;;6.22;4.82;;;;;;;;;;5101338;28;20038;-83
2022/08/18 07:03:53;;;;;;;7.43;4.80;;;;;;;;;;5100926;28;20040;-84
2022/08/18 07:06:19;;;;;;;6.40;3.67;;;;;;;;;;5100885;28;20564;-84
2022/08/18 07:08:46;;;;;;;6.00;4.50;;;;;;;;;;5100082;28;20044;-84
2022/08/18 07:11:23;;;;;;;7.22;5.25;;;;;;;;;;5102873;28;20121;-85
2022/08/18 07:13:51;;;;;;;6.68;4.72;;;;;;;;;;5075437;28;20029;-84
2022/08/18 07:16:27;;;;;;;7.13;4.90;;;;;;;;;;5089289;28;20492;-84
2022/08/18 07:18:53;;;;;;;8.48;4.85;;;;;;;;;;5091308;28;20028;-84
2022/08/18 07:21:27;;;;;;;6.47;5.20;;;;;;;;;;5088489;28;20054;-82
2022/08/18 07:24:10;;;;;;;6.97;4.88;;;;;;;;;;5096185;28;20194;-84
2022/08/18 07:27:00;;;;;;;8.05;5.05;;;;;;;;;;5099862;28;20020;-83
2022/08/18 07:29:26;;;;;;;6.32;4.72;;;;;;;;;;5098600;28;20047;-84
2022/08/18 07:31:54;;;;;;;9.13;4.45;;;;;;;;;;5099952;28;20463;-83
2022/08/18 07:34:25;;;;;;;5.45;4.60;;;;;;;;;;5100181;28;20554;-83
2022/08/18 07:37:14;;;;;;;5.88;4.75;;;;;;;;;;5100097;28;20472;-85
2022/08/18 07:40:18;;;;;;;5.22;4.25;;;;;;;;;;5098988;28;20035;-84
2022/08/18 07:42:52;;;;;;;5.90;4.60;;;;;;;;;;5096790;28;20040;-83
2022/08/18 07:45:23;;;;;;;8.02;4.55;;;;;;;;;;5095805;28;20432;-84
2022/08/18 07:47:51;;;;;;;5.45;4.15;;;;;;;;;;5099471;28;20457;-84
2022/08/18 07:50:17;;;;;;;9.23;4.30;;;;;;;;;;5092956;28;20024;-84
2022/08/18 07:52:50;;;;;;;8.20;3.92;;;;;;;;;;5100683;28;20028;-84
2022/08/18 07:55:27;;;;;;;7.93;4.18;;;;;;;;;;5099729;28;20474;-84
2022/08/18 07:58:11;;;;;;;5.68;4.00;;;;;;;;;;5097088;28;20149;-83
2022/08/18 08:01:04;;;;;;;5.60;3.92;;;;;;;;;;5096708;28;20052;-83
2022/08/18 08:03:54;;;;;;;6.50;4.15;;;;;;;;;;5100339;28;20026;-84
2022/08/18 08:06:45;;;;;;;6.25;4.43;;;;;;;;;;5100054;28;20081;-84
2022/08/18 08:09:24;;;;;;;6.55;4.20;;;;;;;;;;5100102;28;20085;-85
2022/08/18 08:11:57;;;;;;;4.05;3.58;;;;;;;;;;5090245;28;20028;-84
2022/08/18 08:14:34;;;;;;;7.55;4.22;;;;;;;;;;5075812;28;20452;-84
2022/08/18 08:17:12;;;;;;;7.15;4.15;;;;;;;;;;5082258;28;20020;-84
2022/08/18 08:20:12;;;;;;;6.05;4.50;;;;;;;;;;5082913;28;20478;-83
2022/08/18 08:23:16;;;;;;;6.68;4.95;;;;;;;;;;5099451;28;20358;-84
2022/08/18 08:26:22;;;;;;;7.95;4.78;;;;;;;;;;5100010;28;20023;-84
2022/08/18 08:29:09;;;;;;;8.52;4.35;;;;;;;;;;5095816;28;20024;-83
2022/08/18 08:31:47;;;;;;;5.40;4.20;;;;;;;;;;5099886;28;20028;-84
2022/08/18 08:34:23;;;;;;;6.90;4.03;;;;;;;;;;5099924;28;20028;-84
2022/08/18 08:37:00;;;;;;;6.28;4.82;;;;;;;;;;5097957;28;20038;-82
2022/08/18 08:39:41;;;;;;;8.43;5.45;;;;;;;;;;5099722;28;20056;-84
2022/08/18 08:42:13;;;;;;;8.82;5.88;;;;;;;;;;5096990;28;20081;-84
2022/08/18 08:44:48;;;;;;;8.15;5.55;;;;;;;;;;5094093;28;20154;-84
2022/08/18 08:47:22;;;;;;;7.20;5.18;;;;;;;;;;5091634;28;20020;-84
2022/08/18 08:49:57;;;;;;;9.02;4.85;;;;;;;;;;5089902;28;20081;-84
2022/08/18 08:52:43;;;;;;;7.30;4.80;;;;;;;;;;5097301;28;20384;-83
2022/08/18 08:55:18;;;;;;;10.60;5.10;;;;;;;;;;5093813;28;20024;-84
2022/08/18 08:57:52;;;;;;;7.53;5.78;;;;;;;;;;5095269;28;20403;-83
2022/08/18 09:00:18;;;;;;;7.05;5.35;;;;;;;;;;5099300;28;20084;-82
2022/08/18 09:02:50;;;;;;;9.07;4.95;;;;;;;;;;5097831;28;20051;-84
2022/08/18 09:05:26;;;;;;;;;;;;;;;;;;5093141;28;20028;-84
2022/08/18 09:08:19;;;;;;;8.57;5.38;;;;;;;;;;5097600;28;19912;-84
2022/08/18 09:10:59;;;;;;;9.75;6.05;;;;;;;;;;5097443;28;20020;-84
2022/08/18 09:13:33;;;;;;;8.43;5.53;;;;;;;;;;5077321;28;20021;-85
2022/08/18 09:16:40;;;;;;;8.00;5.80;;;;;;;;;;5089233;28;20073;-84
2022/08/18 09:19:23;;;;;;;8.23;4.97;;;;;;;;;;5044752;28;20476;-83
2022/08/18 09:22:05;;;;;;;6.80;4.82;;;;;;;;;;5094853;28;20055;-84
2022/08/18 09:24:40;;;;;;;8.55;4.93;;;;;;;;;;5077628;28;20387;-85
2022/08/18 09:27:22;;;;;;;9.73;5.55;;;;;;;;;;5077556;28;20075;-85
2022/08/18 09:29:52;;;;;;;8.82;4.72;;;;;;;;;;5086830;28;20366;-84
2022/08/18 09:32:18;;;;;;;7.43;5.30;;;;;;;;;;5097761;28;20027;-84
2022/08/18 09:35:22;;;;;;;7.63;5.38;;;;;;;;;;5098140;28;20099;-85
2022/08/18 09:43:51;;;;;;;7.13;5.68;;;;;;;;;;5102300;28;20031;-84
2022/08/18 09:46:39;;;;;;;10.93;5.70;;;;;;;;;;5087660;28;20029;-84
2022/08/18 09:49:26;;;;;;;7.80;5.85;;;;;;;;;;5080926;28;20020;-84
2022/08/18 09:52:00;;;;;;;8.07;5.72;;;;;;;;;;5102047;28;20024;-84
2022/08/18 09:54:32;;;;;;;7.13;5.25;;;;;;;;;;5098362;28;20024;-84
2022/08/18 09:57:16;;;;;;;7.30;5.60;;;;;;;;;;5097615;28;20478;-84
2022/08/18 09:59:46;;;;;;;9.50;5.95;;;;;;;;;;5103256;28;20058;-81
2022/08/18 10:02:31;;;;;;;7.68;5.55;;;;;;;;;;5105898;28;20084;-81
2022/08/18 10:05:18;;;;;;;9.48;5.30;;;;;;;;;;5112920;28;20026;-80
2022/08/18 10:08:16;;;;;;;8.50;5.80;;;;;;;;;;5112230;28;20024;-83
2022/08/18 10:10:48;;;;;;;7.22;5.60;;;;;;;;;;5089087;28;20020;-81
2022/08/18 10:13:13;;;;;;;7.70;4.82;;;;;;;;;;5072816;28;20097;-83
2022/08/18 10:15:45;;;;;;;6.13;5.07;;;;;;;;;;5089454;28;20025;-82
2022/08/18 10:18:19;;;;;;;5.88;4.93;;;;;;;;;;5111837;28;20020;-82
2022/08/18 10:21:17;;;;;;;6.50;5.07;;;;;;;;;;5104876;28;20042;-82
2022/08/18 10:24:07;;;;;;;7.88;5.43;;;;;;;;;;5097987;28;20038;-84
2022/08/18 10:26:39;;;;;;;7.00;5.30;;;;;;;;;;5096567;28;20032;-85
2022/08/18 10:29:24;;;;;;;6.43;4.88;;;;;;;;;;5083120;28;20028;-83
2022/08/18 10:31:55;;;;;;;7.15;5.60;;;;;;;;;;5094854;28;20116;-84
2022/08/18 10:34:55;;;;;;;6.05;4.68;;;;;;;;;;5096039;28;20058;-84
2022/08/18 10:37:29;;;;;;;9.23;5.70;;;;;;;;;;5095718;28;20031;-84
2022/08/18 10:40:12;;;;;;;9.13;5.20;;;;;;;;;;5096430;28;20107;-84
2022/08/18 10:42:50;;;;;;;8.20;4.88;;;;;;;;;;5086108;28;20456;-84
2022/08/18 10:45:41;;;;;;;5.50;4.78;;;;;;;;;;5092687;28;20031;-84
2022/08/18 10:48:30;;;;;;;6.68;4.50;;;;;;;;;;5096131;28;20031;-84
2022/08/18 10:51:12;;;;;;;6.63;5.35;;;;;;;;;;5089563;28;20020;-84
2022/08/18 10:53:57;;;;;;;9.10;5.50;;;;;;;;;;5096699;28;20036;-83
2022/08/18 10:56:32;;;;;;;7.38;5.75;;;;;;;;;;5092173;28;20035;-82
2022/08/18 10:59:31;;;;;;;9.98;5.55;;;;;;;;;;5087467;28;20035;-84
2022/08/18 11:01:57;;;;;;;10.20;5.10;;;;;;;;;;5101048;28;20031;-83
2022/08/18 11:04:36;;;;;;;5.80;5.20;;;;;;;;;;5097941;28;20081;-83
2022/08/18 11:07:18;;;;;;;6.57;5.85;;;;;;;;;;5064224;28;20054;-83
2022/08/18 11:09:48;;;;;;;9.20;5.10;;;;;;;;;;5065167;28;20028;-84
2022/08/18 11:12:13;;;;;;;8.73;5.88;;;;;;;;;;5090075;28;20020;-84
2022/08/18 11:15:00;;;;;;;8.13;5.38;;;;;;;;;;5092360;28;20036;-83
2022/08/18 11:17:44;;;;;;;8.32;6.43;;;;;;;;;;5094806;28;20032;-82
2022/08/18 11:20:13;;;;;;;8.57;5.65;;;;;;;;;;5095668;28;20062;-83
2022/08/18 11:22:53;;;;;;;8.70;5.97;;;;;;;;;;5108970;28;20020;-83
2022/08/18 11:25:24;;;;;;;8.73;5.88;;;;;;;;;;5108364;28;20035;-83
2022/08/18 11:27:50;;;;;;;;;;;;;;;;;;5117041;28;20024;-83
2022/08/18 11:30:16;;;;;;;8.18;6.05;;;;;;;;;;5113619;28;19919;-83
2022/08/18 11:32:42;;;;;;;7.70;5.72;;;;;;;;;;5116916;28;20020;-83
2022/08/18 11:35:18;;;;;;;6.35;5.65;;;;;;;;;;5113449;28;20027;-83
2022/08/18 11:37:48;;;;;;;7.78;6.13;;;;;;;;;;5104816;28;20106;-85
2022/08/18 11:40:49;;;;;;;9.20;5.60;;;;;;;;;;5107676;28;20033;-84
2022/08/18 11:43:18;;;;;;;7.43;5.88;;;;;;;;;;5103999;28;20032;-84
2022/08/18 11:45:46;;;;;;;16.45;6.15;;;;;;;;;;5102562;28;20024;-84
2022/08/18 11:48:21;;;;;;;7.65;5.40;;;;;;;;;;5100764;28;20027;-85
2022/08/18 11:50:46;;;;;;;6.68;5.13;;;;;;;;;;5094599;28;20030;-85
2022/08/18 11:53:33;;;;;;;9.18;5.55;;;;;;;;;;5105520;28;20052;-84
2022/08/18 11:56:19;;;;;;;7.47;5.70;;;;;;;;;;5105245;28;20020;-84
2022/08/18 11:58:52;;;;;;;6.82;5.50;;;;;;;;;;5095334;28;20028;-84
2022/08/18 12:01:39;;;;;;;9.27;5.68;;;;;;;;;;5102218;28;20024;-84
2022/08/18 12:04:12;;;;;;;7.90;5.65;;;;;;;;;;5102189;28;20027;-84
2022/08/18 12:06:46;;;;;;;6.65;5.20;;;;;;;;;;5103737;28;20267;-84
2022/08/18 12:09:19;;;;;;;9.82;5.60;;;;;;;;;;5102275;28;20024;-85
2022/08/18 12:11:53;;;;;;;6.53;5.72;;;;;;;;;;5093201;28;20028;-84
2022/08/18 12:14:21;;;;;;;9.95;6.32;;;;;;;;;;5092480;28;20028;-84
2022/08/18 12:16:47;;;;;;;7.97;6.10;;;;;;;;;;5099194;28;20024;-84
2022/08/18 12:19:14;;;;;;;7.93;5.25;;;;;;;;;;5081931;28;20029;-82
2022/08/18 12:21:43;;;;;;;7.38;5.47;;;;;;;;;;5099755;28;20032;-84
2022/08/18 12:24:21;;;;;;;6.45;5.28;;;;;;;;;;5102893;28;20032;-84
2022/08/18 12:26:48;;;;;;;9.40;5.22;;;;;;;;;;5102507;28;20024;-84
2022/08/18 12:29:16;;;;;;;7.97;4.85;;;;;;;;;;5090608;28;20027;-84
2022/08/18 12:31:42;;;;;;;9.43;5.40;;;;;;;;;;5095657;28;20084;-83
2022/08/18 12:34:07;;;;;;;5.63;4.60;;;;;;;;;;5102905;28;20085;-84
2022/08/18 12:36:34;;;;;;;6.45;4.65;;;;;;;;;;5104758;28;20024;-84
2022/08/18 12:38:59;;;;;;;6.03;4.90;;;;;;;;;;5102365;28;20016;-84
2022/08/18 12:41:25;;;;;;;5.90;4.65;;;;;;;;;;5101679;28;20028;-84
2022/08/18 12:43:52;;;;;;;8.38;5.60;;;;;;;;;;5101091;28;20035;-84
2022/08/18 12:46:18;;;;;;;7.22;5.13;;;;;;;;;;5099433;28;20020;-84
2022/08/18 12:48:43;;;;;;;8.27;4.80;;;;;;;;;;5103036;28;20165;-85
2022/08/18 12:51:09;;;;;;;6.15;4.55;;;;;;;;;;5093016;28;20023;-84
2022/08/18 12:53:35;;;;;;;7.68;5.00;;;;;;;;;;5097611;28;20035;-84
2022/08/18 12:56:01;;;;;;;5.30;4.35;;;;;;;;;;5099947;28;20020;-83
2022/08/18 12:58:27;;;;;;;5.82;4.80;;;;;;;;;;5089136;28;20051;-83
2022/08/18 13:00:52;;;;;;;6.97;5.20;;;;;;;;;;5099656;28;20024;-82
2022/08/18 13:03:18;;;;;;;6.95;5.35;;;;;;;;;;5101037;28;20035;-82
2022/08/18 13:05:44;;;;;;;7.63;5.90;;;;;;;;;;5100497;28;20030;-83
2022/08/18 13:08:17;;;;;;;7.07;5.30;;;;;;;;;;5100348;28;20032;-82
2022/08/18 13:10:43;;;;;;;7.28;6.10;;;;;;;;;;5100323;28;20020;-84
2022/08/18 13:13:08;;;;;;;7.72;5.25;;;;;;;;;;5078585;28;20080;-85
2022/08/18 13:15:34;;;;;;;6.82;5.78;;;;;;;;;;5085326;28;20027;-87
2022/08/18 13:18:01;;;;;;;5.57;4.43;;;;;;;;;;5080380;28;20111;-86
2022/08/18 13:20:27;;;;;;;8.70;5.22;;;;;;;;;;5089639;28;20429;-86
2022/08/18 13:22:52;;;;;;;10.32;5.30;;;;;;;;;;5092694;28;20562;-85
2022/08/18 13:25:18;;;;;;;6.82;4.85;;;;;;;;;;5095053;28;20024;-85
2022/08/18 13:27:44;;;;;;;8.95;4.57;;;;;;;;;;5096721;28;20367;-86
2022/08/18 13:30:13;;;;;;;6.15;4.50;;;;;;;;;;5090351;28;20020;-85
2022/08/18 13:32:39;;;;;;;8.20;5.15;;;;;;;;;;5097187;28;20305;-85
2022/08/18 13:35:06;;;;;;;11.02;4.97;;;;;;;;;;5097010;28;20048;-86
2022/08/18 13:37:32;;;;;;;5.95;4.65;;;;;;;;;;5089106;28;20506;-85
2022/08/18 13:39:58;;;;;;;6.32;4.30;;;;;;;;;;5075859;28;20025;-86
2022/08/18 13:42:27;;;;;;;5.32;4.50;;;;;;;;;;5075967;28;20044;-86
2022/08/18 13:44:54;;;;;;;6.07;5.13;;;;;;;;;;5078289;28;20134;-85
2022/08/18 13:47:20;;;;;;;4.75;4.30;;;;;;;;;;5095370;28;20095;-86
2022/08/18 13:49:46;;;;;;;6.35;4.43;;;;;;;;;;5087204;28;20475;-86
2022/08/18 13:52:13;;;;;;;5.10;4.45;;;;;;;;;;5094893;28;20024;-85
2022/08/18 13:54:39;;;;;;;6.65;4.38;;;;;;;;;;5096425;28;20020;-85
2022/08/18 13:57:05;;;;;;;8.55;4.43;;;;;;;;;;5092648;28;20020;-86
2022/08/18 13:59:32;;;;;;;7.20;5.07;;;;;;;;;;5084161;28;20490;-86
2022/08/18 14:01:59;;;;;;;7.72;5.15;;;;;;;;;;5091626;28;20022;-86
2022/08/18 14:04:25;;;;;;;4.70;4.18;;;;;;;;;;5097952;28;20032;-85
2022/08/18 14:06:53;;;;;;;9.88;4.95;;;;;;;;;;5096626;28;20047;-85
2022/08/18 14:09:18;;;;;;;6.50;4.47;;;;;;;;;;5098193;28;20027;-86
2022/08/18 14:11:46;;;;;;;7.80;4.25;;;;;;;;;;5087735;28;20024;-86
2022/08/18 14:14:12;;;;;;;4.97;4.35;;;;;;;;;;5094675;28;20028;-86
2022/08/18 14:16:37;;;;;;;4.63;4.20;;;;;;;;;;5089272;28;20028;-85
2022/08/18 14:27:34;;;;;;;8.65;4.28;;;;;;;;;;5095253;28;20062;-85
2022/08/18 14:30:08;;;;;;;6.70;4.30;;;;;;;;;;5091259;28;20120;-85
2022/08/18 14:32:35;;;;;;;5.00;4.07;;;;;;;;;;5091151;28;20020;-84
2022/08/18 14:35:03;;;;;;;4.82;3.55;;;;;;;;;;5073271;28;20024;-85
2022/08/18 14:37:29;;;;;;;5.45;4.03;;;;;;;;;;5080454;28;20028;-85
2022/08/18 14:39:54;;;;;;;6.28;4.25;;;;;;;;;;5094473;28;20028;-85
2022/08/18 14:42:20;;;;;;;5.03;3.92;;;;;;;;;;5095627;28;20103;-84
2022/08/18 14:44:47;;;;;;;7.03;3.97;;;;;;;;;;5082591;28;20035;-85
2022/08/18 14:47:12;;;;;;;5.07;3.92;;;;;;;;;;5093327;28;20558;-85
2022/08/18 14:49:38;;;;;;;5.22;4.05;;;;;;;;;;5087213;28;20021;-85
2022/08/18 14:52:05;;;;;;;7.18;4.47;;;;;;;;;;5094368;28;20498;-84
2022/08/18 14:54:31;;;;;;;6.63;4.63;;;;;;;;;;5094084;28;20497;-85
2022/08/18 14:57:00;;;;;;;6.38;4.68;;;;;;;;;;5087717;28;20020;-85
2022/08/18 14:59:27;;;;;;;4.30;3.90;;;;;;;;;;5089045;28;20024;-85
2022/08/18 15:01:53;;;;;;;6.85;4.18;;;;;;;;;;5087931;28;20143;-84
2022/08/18 15:04:18;;;;;;;5.63;4.22;;;;;;;;;;5087757;28;20111;-85
2022/08/18 15:06:44;;;;;;;7.38;3.95;;;;;;;;;;5093482;28;20127;-84
2022/08/18 15:09:09;;;;;;;6.28;4.13;;;;;;;;;;5080388;28;20028;-85
2022/08/18 15:11:34;;;;;;;8.20;4.10;;;;;;;;;;5086659;28;20025;-84
2022/08/18 15:14:00;;;;;;;5.47;4.32;;;;;;;;;;5073861;28;20033;-85
2022/08/18 15:16:26;;;;;;;4.72;4.22;;;;;;;;;;5080668;28;20020;-85
2022/08/18 15:18:52;;;;;;;17.08;4.40;;;;;;;;;;5090468;28;20024;-85
2022/08/18 15:26:47;;;;;;;5.93;4.00;;;;;;;;;;5098849;28;20034;-84
2022/08/18 15:29:12;;;;;;;4.32;3.75;;;;;;;;;;5109520;28;20055;-84
2022/08/18 15:31:38;;;;;;;4.80;3.90;;;;;;;;;;5117372;28;20079;-85
2022/08/18 15:34:04;;;;;;;7.30;3.97;;;;;;;;;;5116757;28;20038;-84
2022/08/18 15:36:31;;;;;;;4.65;3.90;;;;;;;;;;5105132;28;20028;-86
2022/08/18 15:39:03;;;;;;;11.15;4.30;;;;;;;;;;5096206;28;20020;-86
2022/08/18 15:41:37;;;;;;;6.20;4.10;;;;;;;;;;5092522;28;20458;-85